Time;durP1;ratioP1;P1;durP2;ratioP2;P2;SDS_P1;SDS_P2;PMS_P1;PMS_P2;Temp;Humidity;BMP_temperature;BMP_pressure;BME280_temperature;BME280_humidity;BME280_pressure;Samples;Min_cycle;Max_cycle;Signal;HPM_P1;HPM_P2
2022/07/01 00:01:59;;;;;;;2.83;0.85;;;;;;;14.89;100.00;96727.59;5024871;28;20119;-70
2022/07/01 00:04:26;;;;;;;2.15;0.70;;;;;;;14.80;100.00;96726.38;5006167;28;20101;-70
2022/07/01 00:06:53;;;;;;;2.80;1.08;;;;;;;14.83;100.00;96723.63;5002912;28;20045;-70
2022/07/01 00:09:18;;;;;;;3.63;0.73;;;;;;;14.78;100.00;96720.47;4997910;28;20042;-69
2022/07/01 00:11:43;;;;;;;3.80;1.10;;;;;;;14.78;100.00;96718.50;5003345;28;20042;-72
2022/07/01 00:14:10;;;;;;;2.47;0.73;;;;;;;15.11;100.00;96705.50;4998565;28;20391;-68
2022/07/01 00:16:36;;;;;;;6.65;0.93;;;;;;;14.90;100.00;96714.56;5002283;28;20407;-69
2022/07/01 00:19:02;;;;;;;1.23;0.63;;;;;;;15.15;100.00;96720.06;5003022;28;20514;-70
2022/07/01 00:21:28;;;;;;;1.98;0.75;;;;;;;15.15;100.00;96713.78;4996827;28;20453;-69
2022/07/01 00:23:53;;;;;;;3.22;0.70;;;;;;;15.08;100.00;96715.34;5002355;28;20061;-70
2022/07/01 00:26:18;;;;;;;3.92;0.98;;;;;;;15.18;100.00;96718.47;4998351;28;20042;-71
2022/07/01 00:28:44;;;;;;;9.93;1.35;;;;;;;15.22;100.00;96700.75;5001459;28;20109;-71
2022/07/01 00:31:09;;;;;;;1.55;0.57;;;;;;;15.33;100.00;96695.22;4989939;28;20049;-69
2022/07/01 00:33:35;;;;;;;1.35;0.70;;;;;;;15.41;100.00;96682.97;5002250;28;20462;-70
2022/07/01 00:36:00;;;;;;;1.80;0.65;;;;;;;15.27;100.00;96667.25;5000871;28;20066;-69
2022/07/01 00:38:26;;;;;;;5.05;0.60;;;;;;;15.32;100.00;96652.22;4996888;28;20077;-69
2022/07/01 00:40:53;;;;;;;3.63;0.80;;;;;;;15.38;100.00;96647.88;5017647;28;20128;-70
2022/07/01 00:43:18;;;;;;;0.90;0.52;;;;;;;15.38;100.00;96639.63;4996539;28;20057;-70
2022/07/01 00:45:48;;;;;;;1.70;0.60;;;;;;;15.35;100.00;96639.63;5002291;28;20038;-69
2022/07/01 00:48:14;;;;;;;;;;;;;;;15.31;100.00;96622.31;4997910;28;20054;-68
2022/07/01 00:50:39;;;;;;;1.73;0.77;;;;;;;15.47;100.00;96614.34;5003282;28;20387;-70
2022/07/01 00:53:05;;;;;;;1.63;0.68;;;;;;;15.41;100.00;96616.75;4997599;28;20403;-65
2022/07/01 00:55:30;;;;;;;2.92;1.02;;;;;;;15.50;100.00;96630.09;5001727;28;20049;-68
2022/07/01 00:57:56;;;;;;;2.45;0.80;;;;;;;15.47;100.00;96645.50;5002024;28;20119;-69
2022/07/01 01:00:22;;;;;;;3.65;0.80;;;;;;;15.31;100.00;96660.94;4996742;28;20154;-70
2022/07/01 01:02:48;;;;;;;2.00;0.88;;;;;;;15.18;100.00;96682.63;5001524;28;20050;-70
2022/07/01 01:05:13;;;;;;;1.45;1.00;;;;;;;14.97;100.00;96686.22;4995176;28;20037;-69
2022/07/01 01:07:39;;;;;;;1.00;0.60;;;;;;;14.70;100.00;96687.41;5017083;28;20054;-68
2022/07/01 01:10:05;;;;;;;1.23;0.90;;;;;;;14.72;100.00;96693.31;5002369;28;20042;-67
2022/07/01 01:12:31;;;;;;;1.38;0.85;;;;;;;14.71;100.00;96682.66;4987720;28;20054;-69
2022/07/01 01:14:57;;;;;;;1.60;0.90;;;;;;;14.60;100.00;96684.66;5002801;28;20736;-66
2022/07/01 01:17:23;;;;;;;3.38;1.33;;;;;;;14.65;100.00;96674.00;4996752;28;20253;-67
2022/07/01 01:19:53;;;;;;;2.20;1.00;;;;;;;14.72;100.00;96668.50;5001546;28;20050;-68
2022/07/01 01:22:19;;;;;;;1.92;0.80;;;;;;;14.56;100.00;96653.50;4996592;28;20042;-69
2022/07/01 01:24:47;;;;;;;4.65;0.75;;;;;;;14.63;100.00;96648.81;5001319;28;20041;-68
2022/07/01 01:27:12;;;;;;;1.10;0.77;;;;;;;14.76;100.00;96654.72;4996929;28;20129;-68
2022/07/01 01:29:38;;;;;;;3.25;0.80;;;;;;;14.84;100.00;96661.81;5002520;28;20111;-69
2022/07/01 01:32:06;;;;;;;1.70;0.70;;;;;;;14.89;100.00;96657.84;4985690;28;20068;-66
2022/07/01 01:34:32;;;;;;;2.28;0.50;;;;;;;14.85;100.00;96657.06;5012753;23;20203;-68
2022/07/01 01:36:59;;;;;;;5.82;0.73;;;;;;;15.00;100.00;96663.34;5013634;28;20042;-69
2022/07/01 01:39:25;;;;;;;3.10;1.13;;;;;;;15.09;100.00;96659.00;4991052;28;20298;-71
2022/07/01 01:41:51;;;;;;;1.40;0.65;;;;;;;15.05;100.00;96651.91;5015031;28;20041;-70
2022/07/01 01:44:18;;;;;;;1.15;0.63;;;;;;;14.89;100.00;96642.09;5013206;28;20050;-71
2022/07/01 01:46:47;;;;;;;3.00;0.80;;;;;;;14.37;100.00;96613.34;5018585;28;20061;-70
2022/07/01 01:49:13;;;;;;;1.67;0.90;;;;;;;13.85;100.00;96589.72;4982018;28;20380;-70
2022/07/01 01:51:38;;;;;;;2.60;1.25;;;;;;;13.76;100.00;96568.06;5005495;28;20045;-72
2022/07/01 01:54:04;;;;;;;6.78;1.30;;;;;;;13.86;100.00;96565.72;4992113;28;20073;-69
2022/07/01 01:56:30;;;;;;;3.13;1.17;;;;;;;14.11;100.00;96572.03;4994933;28;20045;-70
2022/07/01 01:58:56;;;;;;;3.20;1.30;;;;;;;14.29;100.00;96585.03;5001109;28;20564;-70
2022/07/01 02:01:22;;;;;;;1.83;1.27;;;;;;;14.38;100.00;96582.66;4996500;28;20964;-71
2022/07/01 02:03:49;;;;;;;3.90;1.15;;;;;;;14.35;100.00;96591.72;5000612;28;20053;-70
2022/07/01 02:06:16;;;;;;;2.78;1.20;;;;;;;14.40;100.00;96585.78;4996973;28;20077;-70
2022/07/01 02:08:41;;;;;;;3.30;1.20;;;;;;;14.53;100.00;96598.00;5002785;28;20037;-69
2022/07/01 02:11:08;;;;;;;3.45;1.02;;;;;;;14.56;100.00;96588.16;4987389;28;20753;-69
2022/07/01 02:13:35;;;;;;;2.25;1.10;;;;;;;14.51;100.00;96586.59;5003587;28;20053;-69
2022/07/01 02:16:01;;;;;;;2.28;0.85;;;;;;;14.63;100.00;96588.16;4993123;28;20038;-69
2022/07/01 02:18:27;;;;;;;2.05;0.90;;;;;;;14.69;100.00;96585.78;5012704;28;20483;-68
2022/07/01 02:20:53;;;;;;;4.25;0.95;;;;;;;14.61;100.00;96601.56;5001681;28;20069;-70
2022/07/01 02:23:19;;;;;;;1.92;1.05;;;;;;;14.82;100.00;96595.25;4997545;28;20450;-70
2022/07/01 02:25:46;;;;;;;1.95;1.02;;;;;;;15.03;100.00;96596.38;4997647;28;20042;-69
2022/07/01 02:28:11;;;;;;;2.13;0.90;;;;;;;15.08;100.00;96607.78;4996881;28;20042;-69
2022/07/01 02:30:37;;;;;;;1.73;0.98;;;;;;;15.22;100.00;96611.69;4994808;28;20131;-69
2022/07/01 02:33:05;;;;;;;1.73;1.00;;;;;;;15.07;100.00;96599.88;4996964;28;20391;-68
2022/07/01 02:35:31;;;;;;;3.15;1.02;;;;;;;15.14;100.00;96610.13;5001653;28;20155;-70
2022/07/01 02:37:56;;;;;;;2.90;0.80;;;;;;;15.17;100.00;96612.09;4995064;28;20502;-70
2022/07/01 02:40:22;;;;;;;3.63;1.00;;;;;;;15.25;100.00;96619.13;4995021;28;20954;-68
2022/07/01 02:42:47;;;;;;;1.50;0.85;;;;;;;15.22;100.00;96620.75;5002219;28;20042;-70
2022/07/01 02:45:12;;;;;;;4.07;0.90;;;;;;;15.23;100.00;96627.84;4995687;28;20042;-71
2022/07/01 02:47:40;;;;;;;4.60;1.17;;;;;;;15.21;100.00;96626.66;5000916;28;20125;-70
2022/07/01 02:50:08;;;;;;;1.60;1.00;;;;;;;15.12;100.00;96629.81;4987861;28;20046;-70
2022/07/01 02:52:35;;;;;;;2.60;1.10;;;;;;;14.88;100.00;96640.53;4999742;28;20048;-69
2022/07/01 02:55:01;;;;;;;2.28;0.90;;;;;;;15.01;100.00;96648.38;4999082;28;20045;-71
2022/07/01 02:57:27;;;;;;;1.38;0.80;;;;;;;15.04;100.00;96655.88;4988598;28;20046;-71
2022/07/01 02:59:52;;;;;;;2.05;0.88;;;;;;;14.98;100.00;96657.44;5001785;28;20486;-70
2022/07/01 03:02:19;;;;;;;10.43;1.23;;;;;;;14.83;100.00;96651.16;4988964;28;20046;-70
2022/07/01 03:04:45;;;;;;;2.70;1.02;;;;;;;14.80;100.00;96644.47;4987560;28;20042;-71
2022/07/01 03:07:11;;;;;;;3.97;1.20;;;;;;;14.87;100.00;96651.94;4993657;28;20052;-69
2022/07/01 03:09:39;;;;;;;3.10;0.90;;;;;;;14.81;100.00;96654.31;4997569;28;20038;-70
2022/07/01 03:14:57;;;;;;;1.55;1.00;;;;;;;14.90;100.00;96662.97;5008143;28;20383;-69
2022/07/01 03:17:26;;;;;;;4.57;1.00;;;;;;;14.83;100.00;96662.97;4999948;28;21154;-69
2022/07/01 03:19:52;;;;;;;1.42;1.05;;;;;;;14.52;100.00;96673.59;5005249;28;20554;-69
2022/07/01 03:22:22;;;;;;;1.55;0.80;;;;;;;14.58;100.00;96675.97;4999690;28;20517;-69
2022/07/01 03:24:48;;;;;;;3.72;1.25;;;;;;;14.58;100.00;96667.72;4999512;28;20175;-69
2022/07/01 03:27:14;;;;;;;3.55;1.02;;;;;;;14.39;100.00;96674.38;4997561;28;20474;-70
2022/07/01 03:29:41;;;;;;;2.92;1.20;;;;;;;14.57;100.00;96680.69;5001617;28;20071;-69
2022/07/01 03:32:08;;;;;;;2.10;1.20;;;;;;;14.27;100.00;96686.56;4997340;28;20034;-69
2022/07/01 03:34:34;;;;;;;1.95;1.02;;;;;;;14.16;100.00;96697.56;5002450;28;20064;-69
2022/07/01 03:36:59;;;;;;;2.10;1.23;;;;;;;14.22;100.00;96703.47;5019430;28;20041;-69
2022/07/01 03:39:25;;;;;;;3.13;1.35;;;;;;;14.21;100.00;96712.94;5013926;28;20068;-70
2022/07/01 03:41:50;;;;;;;2.15;1.30;;;;;;;14.09;100.00;96720.34;5009111;28;20576;-68
2022/07/01 03:44:16;;;;;;;3.00;1.50;;;;;;;13.99;100.00;96720.31;4984379;28;20046;-69
2022/07/01 03:46:41;;;;;;;3.90;1.17;;;;;;;14.07;100.00;96727.44;4993810;28;20038;-68
2022/07/01 03:49:08;;;;;;;1.77;1.40;;;;;;;14.02;100.00;96739.59;4987935;28;20042;-69
2022/07/01 03:51:34;;;;;;;3.72;1.35;;;;;;;14.02;100.00;96736.06;4989934;28;20046;-70
2022/07/01 03:56:43;;;;;;;2.42;1.40;;;;;;;13.72;100.00;96737.94;5008519;28;20049;-70
2022/07/01 03:59:08;;;;;;;3.00;1.45;;;;;;;13.69;100.00;96735.94;5001779;28;20117;-69
2022/07/01 04:01:34;;;;;;;4.60;1.30;;;;;;;13.76;100.00;96740.69;5003001;28;20038;-69
2022/07/01 04:04:00;;;;;;;2.90;1.20;;;;;;;13.63;100.00;96734.75;4992985;28;20104;-69
2022/07/01 04:06:26;;;;;;;1.70;1.50;;;;;;;13.77;100.00;96736.75;4995386;28;20042;-69
2022/07/01 04:08:51;;;;;;;3.67;1.70;;;;;;;13.66;100.00;96744.97;4998468;28;20107;-69
2022/07/01 04:11:17;;;;;;;2.10;1.13;;;;;;;13.64;100.00;96752.03;4997337;28;20057;-68
2022/07/01 04:13:49;;;;;;;2.33;1.05;;;;;;;13.73;100.00;96749.72;5004176;28;20141;-68
2022/07/01 04:16:16;;;;;;;2.92;0.90;;;;;;;13.61;100.00;96756.34;4996215;28;20105;-69
2022/07/01 04:18:41;;;;;;;3.55;1.08;;;;;;;13.70;100.00;96761.50;5001738;28;20145;-69
2022/07/01 04:23:51;;;;;;;3.63;1.50;;;;;;;13.79;100.00;96763.91;4998940;28;20720;-69
2022/07/01 04:26:17;;;;;;;2.72;1.30;;;;;;;13.83;100.00;96762.75;4993589;28;20135;-70
2022/07/01 04:28:42;;;;;;;2.65;0.80;;;;;;;13.67;100.00;96776.81;5004500;28;20062;-70
2022/07/01 04:31:08;;;;;;;1.20;0.80;;;;;;;13.62;100.00;96776.41;4996823;28;20141;-71
2022/07/01 04:33:33;;;;;;;1.80;0.80;;;;;;;13.53;100.00;96785.00;4992955;28;20037;-71
2022/07/01 04:35:59;;;;;;;1.98;0.70;;;;;;;13.59;100.00;96797.22;4984119;28;20515;-70
2022/07/01 04:38:24;;;;;;;4.90;0.95;;;;;;;13.36;100.00;96798.25;4990679;28;20570;-71
2022/07/01 04:43:33;;;;;;;5.45;1.40;;;;;;;13.37;100.00;96802.56;5015117;28;20125;-69
2022/07/01 04:45:59;;;;;;;2.42;1.38;;;;;;;13.31;100.00;96804.13;5021054;28;20072;-70
2022/07/01 04:48:24;;;;;;;1.80;1.00;;;;;;;13.03;100.00;96788.16;4997752;28;20050;-70
2022/07/01 04:50:49;;;;;;;2.35;0.60;;;;;;;13.01;100.00;96804.25;4997462;28;20048;-71
2022/07/01 04:53:15;;;;;;;1.65;0.77;;;;;;;12.98;100.00;96794.81;5013051;28;20069;-68
2022/07/01 04:55:40;;;;;;;1.27;0.70;;;;;;;12.78;100.00;96794.25;4996126;28;20502;-70
2022/07/01 04:58:05;;;;;;;9.88;0.70;;;;;;;12.74;100.00;96798.09;4999911;28;20140;-69
2022/07/01 05:00:31;;;;;;;1.67;0.63;;;;;;;12.72;100.00;96806.72;5001523;28;20443;-70
2022/07/01 05:02:57;;;;;;;1.90;0.68;;;;;;;12.70;100.00;96809.06;4995858;28;20046;-68
2022/07/01 05:05:23;;;;;;;1.10;0.68;;;;;;;12.76;100.00;96812.25;4998263;28;20495;-69
2022/07/01 05:07:48;;;;;;;1.75;0.68;;;;;;;12.76;100.00;96823.25;5005013;28;20482;-71
2022/07/01 05:10:14;;;;;;;4.18;0.70;;;;;;;12.79;100.00;96820.53;4992280;28;20045;-70
2022/07/01 05:12:39;;;;;;;3.72;1.00;;;;;;;12.82;100.00;96839.03;4989828;28;20034;-70
2022/07/01 05:15:06;;;;;;;2.13;0.60;;;;;;;12.87;100.00;96850.84;4992905;28;20050;-70
2022/07/01 05:23:03;;;;;;;1.23;0.50;;;;;;;12.95;100.00;96847.00;5014967;28;20116;-67
2022/07/01 05:25:28;;;;;;;1.38;0.70;;;;;;;13.03;100.00;96858.84;5002175;28;20074;-69
2022/07/01 05:27:54;;;;;;;1.25;0.55;;;;;;;13.10;100.00;96853.41;5004654;28;20430;-69
2022/07/01 05:30:21;;;;;;;1.95;0.63;;;;;;;13.00;100.00;96863.16;4999107;28;20524;-69
2022/07/01 05:32:46;;;;;;;0.80;0.60;;;;;;;12.96;100.00;96865.06;5003317;28;20038;-69
2022/07/01 05:35:12;;;;;;;2.75;0.57;;;;;;;12.99;100.00;96864.31;4996593;28;20068;-71
2022/07/01 05:37:39;;;;;;;1.00;0.40;;;;;;;12.90;100.00;96872.88;5002146;28;20049;-70
2022/07/01 05:40:05;;;;;;;0.93;0.50;;;;;;;12.84;100.00;96870.81;4988794;28;20077;-70
2022/07/01 05:42:31;;;;;;;0.43;0.40;;;;;;;12.96;100.00;96878.81;5007181;28;20042;-70
2022/07/01 05:44:56;;;;;;;0.75;0.60;;;;;;;12.98;100.00;96874.53;5000297;28;20069;-69
2022/07/01 05:47:22;;;;;;;1.10;0.60;;;;;;;13.30;100.00;96864.97;5003400;28;20518;-68
2022/07/01 05:49:47;;;;;;;3.10;0.40;;;;;;;13.19;100.00;96868.41;5001916;28;20042;-68
2022/07/01 05:52:12;;;;;;;0.88;0.40;;;;;;;13.37;100.00;96873.31;4998532;28;20087;-68
2022/07/01 05:54:38;;;;;;;1.98;0.70;;;;;;;13.46;100.00;96875.75;5002589;28;20081;-69
2022/07/01 05:57:03;;;;;;;1.83;0.70;;;;;;;13.54;100.00;96883.69;4982438;28;20145;-68
2022/07/01 05:59:29;;;;;;;2.25;0.57;;;;;;;13.75;100.00;96880.28;4989339;28;20077;-68
2022/07/01 06:01:54;;;;;;;0.47;0.40;;;;;;;13.86;100.00;96885.06;4999321;28;20053;-67
2022/07/01 06:04:19;;;;;;;0.32;0.32;;;;;;;13.89;100.00;96890.59;4997411;28;20056;-68
2022/07/01 06:06:45;;;;;;;0.55;0.50;;;;;;;13.69;100.00;96906.59;5002517;28;20119;-68
2022/07/01 06:09:10;;;;;;;1.75;0.60;;;;;;;13.73;100.00;96912.13;4989075;28;20380;-69
2022/07/01 06:11:36;;;;;;;1.40;0.50;;;;;;;13.67;100.00;96925.44;5002335;28;20042;-68
2022/07/01 06:14:01;;;;;;;0.70;0.40;;;;;;;13.64;100.00;96922.66;5001041;28;20120;-68
2022/07/01 06:16:27;;;;;;;0.60;0.40;;;;;;;13.56;100.00;96914.34;4990507;28;20111;-68
2022/07/01 06:18:52;;;;;;;2.47;0.50;;;;;;;13.50;100.00;96909.56;4994305;28;20133;-68
2022/07/01 06:21:18;;;;;;;0.77;0.43;;;;;;;13.56;100.00;96914.34;4995025;28;20053;-68
2022/07/01 06:23:45;;;;;;;1.83;0.70;;;;;;;13.57;100.00;96907.66;5001954;28;20045;-68
2022/07/01 06:26:11;;;;;;;0.98;0.47;;;;;;;13.59;100.00;96904.53;4990412;28;20041;-68
2022/07/01 06:28:36;;;;;;;1.98;0.70;;;;;;;13.63;100.00;96919.13;4991807;28;20046;-68
2022/07/01 06:31:01;;;;;;;1.10;0.70;;;;;;;13.71;100.00;96931.75;5001579;28;20070;-71
2022/07/01 06:33:29;;;;;;;1.27;0.68;;;;;;;13.63;100.00;96937.59;4996947;28;20522;-69
2022/07/01 06:35:55;;;;;;;2.03;0.80;;;;;;;13.60;100.00;96949.38;5001105;28;20042;-69
2022/07/01 06:38:20;;;;;;;0.45;0.40;;;;;;;13.48;100.00;96936.69;4999855;28;20049;-67
2022/07/01 06:41:26;;;;;;;1.92;0.55;;;;;;;13.51;100.00;96928.47;5002992;28;20458;-68
2022/07/01 06:43:31;;;;;;;2.03;0.60;;;;;;;13.53;100.00;96933.59;5008811;28;20105;-69
2022/07/01 06:45:57;;;;;;;1.55;0.38;;;;;;;13.61;100.00;96943.47;5018594;28;20042;-71
2022/07/01 06:48:22;;;;;;;5.63;2.03;;;;;;;13.60;100.00;96952.13;5010227;28;20507;-69
2022/07/01 06:50:47;;;;;;;1.85;0.90;;;;;;;13.47;100.00;96940.59;5012096;28;20067;-69
2022/07/01 06:53:13;;;;;;;1.95;0.55;;;;;;;13.58;100.00;96939.53;5003268;28;20383;-67
2022/07/01 06:55:38;;;;;;;1.50;0.90;;;;;;;13.53;100.00;96939.88;5001747;28;20041;-68
2022/07/01 06:58:04;;;;;;;1.25;0.55;;;;;;;13.55;100.00;96940.28;4998442;28;20050;-67
2022/07/01 07:00:29;;;;;;;1.33;0.70;;;;;;;13.51;100.00;96941.44;5001079;28;20441;-67
2022/07/01 07:02:55;;;;;;;1.80;0.60;;;;;;;13.74;100.00;96953.03;4995228;28;20043;-67
2022/07/01 07:05:20;;;;;;;1.27;0.60;;;;;;;13.75;100.00;96951.84;4997284;28;20037;-67
2022/07/01 07:07:45;;;;;;;2.08;0.80;;;;;;;13.80;100.00;96947.97;5015123;28;20037;-67
2022/07/01 07:10:11;;;;;;;3.90;0.77;;;;;;;13.89;100.00;96953.13;5014459;28;20104;-67
2022/07/01 07:12:36;;;;;;;1.65;0.70;;;;;;;13.57;100.00;96956.41;5005948;28;20030;-68
2022/07/01 07:15:02;;;;;;;4.43;1.20;;;;;;;13.62;100.00;96960.78;5002657;28;20069;-67
2022/07/01 07:17:28;;;;;;;1.75;0.60;;;;;;;13.52;100.00;96954.00;4995953;28;20061;-68
2022/07/01 07:19:55;;;;;;;3.22;1.05;;;;;;;13.80;100.00;96947.97;5002878;28;20046;-68
2022/07/01 07:22:20;;;;;;;2.08;0.98;;;;;;;14.03;100.00;96960.72;4997741;28;20042;-68
2022/07/01 07:24:45;;;;;;;3.92;0.90;;;;;;;14.02;100.00;96953.63;5003627;28;20533;-68
2022/07/01 07:27:11;;;;;;;2.60;1.00;;;;;;;14.04;100.00;96951.28;4995729;28;20057;-69
2022/07/01 07:29:36;;;;;;;4.57;2.40;;;;;;;14.14;100.00;96958.81;5003092;28;20448;-68
2022/07/01 07:32:02;;;;;;;3.90;1.40;;;;;;;14.10;100.00;96958.03;5003368;28;20060;-67
2022/07/01 07:34:28;;;;;;;1.88;0.90;;;;;;;13.92;100.00;96955.91;4988560;28;20050;-69
2022/07/01 07:36:53;;;;;;;3.92;0.80;;;;;;;13.89;100.00;96951.16;5015203;23;20049;-67
2022/07/01 07:39:19;;;;;;;5.18;2.30;;;;;;;13.91;100.00;96953.53;4965087;28;20055;-66
2022/07/01 07:41:44;;;;;;;2.25;0.70;;;;;;;14.03;100.00;96955.22;4968347;28;20088;-66
2022/07/01 07:44:10;;;;;;;3.20;1.40;;;;;;;13.56;100.00;96950.13;4956563;28;20043;-66
2022/07/01 07:46:35;;;;;;;2.00;0.75;;;;;;;13.33;100.00;96952.28;4966039;28;20415;-66
2022/07/01 07:49:01;;;;;;;3.60;0.85;;;;;;;13.51;100.00;96953.22;4966291;28;20053;-66
2022/07/01 07:51:26;;;;;;;1.23;0.63;;;;;;;13.68;100.00;96951.78;4959119;28;20658;-65
2022/07/01 07:53:52;;;;;;;2.75;0.95;;;;;;;13.89;100.00;96953.13;4977768;28;20043;-64
2022/07/01 07:56:17;;;;;;;0.90;0.57;;;;;;;13.83;100.00;96960.16;4941801;28;20127;-65
2022/07/01 07:58:43;;;;;;;1.67;0.70;;;;;;;13.90;100.00;96965.72;4957058;28;20109;-66
2022/07/01 08:01:09;;;;;;;4.53;1.38;;;;;;;13.93;100.00;96965.75;4955921;28;20059;-66
2022/07/01 08:03:35;;;;;;;1.73;0.60;;;;;;;13.96;100.00;96964.22;4960649;28;20916;-67
2022/07/01 08:06:00;;;;;;;1.55;0.80;;;;;;;13.92;100.00;96944.13;4966795;28;20055;-64
2022/07/01 08:08:27;;;;;;;3.47;0.90;;;;;;;13.80;100.00;96936.16;4954113;28;20050;-64
2022/07/01 08:10:53;;;;;;;2.95;1.10;;;;;;;13.95;100.00;96962.63;4962736;28;20058;-66
2022/07/01 08:13:19;;;;;;;3.22;0.90;;;;;;;14.02;100.00;96992.97;4970549;28;20035;-66
2022/07/01 08:15:44;;;;;;;1.80;0.82;;;;;;;13.99;100.00;97004.75;4954507;28;20471;-64
2022/07/01 08:18:10;;;;;;;2.83;0.90;;;;;;;13.99;100.00;97006.69;4951174;28;20070;-65
2022/07/01 08:20:35;;;;;;;4.30;0.70;;;;;;;13.87;100.00;96999.53;4950858;28;20031;-65
2022/07/01 08:23:01;;;;;;;1.33;0.60;;;;;;;13.75;100.00;96995.88;4965688;28;20403;-66
2022/07/01 08:25:26;;;;;;;1.65;0.80;;;;;;;13.72;100.00;96990.34;4960519;28;20051;-64
2022/07/01 08:27:52;;;;;;;4.40;1.58;;;;;;;13.70;100.00;96987.19;4965874;28;20518;-66
2022/07/01 08:30:17;;;;;;;7.85;4.03;;;;;;;13.84;100.00;96981.03;4960068;28;20051;-65
2022/07/01 08:32:43;;;;;;;4.18;1.63;;;;;;;13.93;100.00;96967.72;4963061;28;20038;-64
2022/07/01 08:35:11;;;;;;;2.80;0.90;;;;;;;13.97;100.00;96979.53;4951888;28;20043;-67
2022/07/01 08:37:37;;;;;;;1.33;0.60;;;;;;;14.13;100.00;96979.25;4963578;28;20134;-66
2022/07/01 08:40:06;;;;;;;2.47;0.80;;;;;;;14.40;100.00;96982.56;4964191;28;20039;-63
2022/07/01 08:42:31;;;;;;;2.00;1.02;;;;;;;14.34;100.00;96978.63;4961765;28;20039;-65
2022/07/01 08:45:00;;;;;;;4.55;0.70;;;;;;;14.40;100.00;96977.06;4966191;28;20496;-67
2022/07/01 08:47:26;;;;;;;2.22;0.70;;;;;;;14.56;100.00;96979.53;4957743;28;20207;-65
2022/07/01 08:49:51;;;;;;;1.38;0.80;;;;;;;14.62;100.00;96991.00;4959212;28;20078;-67
2022/07/01 08:52:17;;;;;;;2.00;0.73;;;;;;;14.53;100.00;96985.78;4960192;28;20042;-66
2022/07/01 08:54:42;;;;;;;1.52;0.75;;;;;;;14.48;100.00;96989.72;4965155;28;20173;-65
2022/07/01 08:57:08;;;;;;;1.30;0.70;;;;;;;14.45;100.00;96987.72;4960185;28;20042;-65
2022/07/01 08:59:33;;;;;;;2.92;1.38;;;;;;;14.50;100.00;96995.63;4939814;28;20062;-65
2022/07/01 09:02:02;;;;;;;1.33;0.57;;;;;;;14.71;100.00;96980.41;4956288;28;20039;-68
2022/07/01 09:04:27;;;;;;;7.78;3.45;;;;;;;14.81;100.00;96970.63;4951807;28;20058;-68
2022/07/01 09:07:03;;;;;;;2.53;1.27;;;;;;;14.85;100.00;96966.69;4955645;28;20523;-67
2022/07/01 09:09:28;;;;;;;3.15;0.68;;;;;;;14.98;100.00;96977.38;4955609;28;20129;-65
2022/07/01 09:11:55;;;;;;;1.98;0.68;;;;;;;14.78;100.00;96985.94;4954097;28;20154;-66
2022/07/01 09:14:26;;;;;;;1.13;0.80;;;;;;;14.63;100.00;96985.09;4945449;28;20040;-65
2022/07/01 09:16:58;;;;;;;10.43;6.47;;;;;;;14.60;100.00;96980.34;4955469;28;20053;-66
2022/07/01 09:19:24;;;;;;;6.82;3.55;;;;;;;14.61;100.00;96992.19;4946300;28;20059;-67
2022/07/01 09:22:00;;;;;;;1.55;0.73;;;;;;;14.66;100.00;97003.63;4966256;28;20042;-67
2022/07/01 09:24:34;;;;;;;1.13;0.60;;;;;;;14.48;100.00;96988.94;4959641;28;20070;-67
2022/07/01 09:27:06;;;;;;;1.60;0.65;;;;;;;14.60;100.00;96996.88;4952219;28;20043;-67
2022/07/01 09:29:37;;;;;;;2.50;0.95;;;;;;;14.77;100.00;97000.16;4949592;28;20103;-65
2022/07/01 09:32:05;;;;;;;2.78;0.80;;;;;;;14.74;100.00;97003.66;4979880;28;20050;-62
2022/07/01 09:34:51;;;;;;;3.10;1.08;;;;;;;14.84;100.00;96989.94;4989665;28;20043;-65
2022/07/01 09:37:22;;;;;;;1.88;0.82;;;;;;;15.00;100.00;96997.06;4954449;28;20039;-66
2022/07/01 09:39:50;;;;;;;0.93;0.52;;;;;;;15.02;100.00;96997.50;4948622;28;20047;-64
2022/07/01 09:42:19;;;;;;;1.83;0.90;;;;;;;15.15;100.00;97004.22;4946637;28;20129;-66
2022/07/01 09:44:55;;;;;;;4.55;1.02;;;;;;;14.98;100.00;97003.00;4955609;28;20040;-67
2022/07/01 09:47:28;;;;;;;1.45;0.60;;;;;;;15.08;100.00;97004.97;4945032;28;20522;-64
2022/07/01 09:49:56;;;;;;;1.73;0.80;;;;;;;15.15;100.00;97004.22;4950628;28;20423;-65
2022/07/01 09:52:22;;;;;;;1.20;0.60;;;;;;;15.14;100.00;96999.88;4948425;28;20134;-65
2022/07/01 09:54:49;;;;;;;1.58;0.60;;;;;;;15.23;100.00;97005.84;4956306;28;20511;-64
2022/07/01 09:57:19;;;;;;;1.80;0.70;;;;;;;15.14;100.00;97002.63;4947098;28;20487;-66
2022/07/01 09:59:45;;;;;;;0.90;0.50;;;;;;;15.41;100.00;97010.59;4966581;28;20062;-66
2022/07/01 10:02:11;;;;;;;2.60;0.95;;;;;;;15.46;100.00;97010.22;4966723;28;20111;-66
2022/07/01 10:04:42;;;;;;;1.20;0.60;;;;;;;15.54;100.00;97014.59;4965083;28;20059;-63
2022/07/01 10:07:10;;;;;;;1.73;0.60;;;;;;;15.62;100.00;97012.63;4953607;28;20392;-66
2022/07/01 10:09:47;;;;;;;1.88;0.90;;;;;;;15.30;100.00;97029.88;4951861;28;20128;-66
2022/07/01 10:12:30;;;;;;;1.83;0.57;;;;;;;15.32;100.00;97029.50;4954364;28;20063;-65
2022/07/01 10:14:59;;;;;;;1.60;0.70;;;;;;;15.42;100.00;97031.50;4957769;28;20051;-65
2022/07/01 10:17:29;;;;;;;1.75;0.80;;;;;;;15.50;100.00;97027.56;4950983;28;20150;-66
2022/07/01 10:19:56;;;;;;;0.70;0.57;;;;;;;15.60;100.00;97031.53;4961597;28;20051;-65
2022/07/01 10:22:28;;;;;;;1.13;0.60;;;;;;;15.57;100.00;97035.88;4957894;28;20874;-61
2022/07/01 10:24:54;;;;;;;1.17;0.70;;;;;;;15.53;100.00;97040.59;4944554;28;20066;-63
2022/07/01 10:27:24;;;;;;;2.05;0.70;;;;;;;15.44;100.00;97048.47;4950722;28;20047;-66
2022/07/01 10:30:13;;;;;;;2.15;0.82;;;;;;;15.37;100.00;97045.69;4958362;28;20039;-66
2022/07/01 10:32:47;;;;;;;1.00;0.53;;;;;;;15.40;100.00;97070.53;4948825;28;20513;-66
2022/07/01 10:35:13;;;;;;;6.57;1.25;;;;;;;15.12;100.00;97070.41;4952902;28;20294;-66
2022/07/01 10:38:10;;;;;;;2.78;0.82;;;;;;;15.10;100.00;97070.81;4951205;28;20416;-67
2022/07/01 10:40:46;;;;;;;1.77;0.70;;;;;;;15.03;100.00;97055.00;4943702;28;20471;-66
2022/07/01 10:43:31;;;;;;;2.92;1.52;;;;;;;14.91;100.00;97049.84;4946807;28;20488;-67
2022/07/01 10:45:56;;;;;;;1.27;0.65;;;;;;;14.61;100.00;97052.84;4944991;28;20051;-66
2022/07/01 10:48:24;;;;;;;2.55;1.15;;;;;;;14.45;100.00;97051.13;4942564;28;20130;-64
2022/07/01 10:50:50;;;;;;;0.80;0.50;;;;;;;14.52;100.00;97050.38;4953007;28;20149;-65
2022/07/01 10:53:16;;;;;;;2.40;0.80;;;;;;;14.76;100.00;97064.72;4946053;28;20043;-66
2022/07/01 10:55:52;;;;;;;1.65;0.50;;;;;;;14.96;100.00;97066.00;4955481;28;20043;-68
2022/07/01 10:58:21;;;;;;;1.58;0.63;;;;;;;14.70;100.00;97069.81;4927992;28;20074;-64
2022/07/01 11:00:49;;;;;;;2.97;0.93;;;;;;;14.44;100.00;97065.28;4958990;28;20554;-66
2022/07/01 11:03:21;;;;;;;3.67;2.08;;;;;;;14.59;100.00;97064.25;4954178;28;20035;-66
2022/07/01 11:05:50;;;;;;;5.22;1.83;;;;;;;14.67;100.00;97067.81;4953434;28;20101;-66
2022/07/01 11:08:15;;;;;;;4.32;2.13;;;;;;;14.85;100.00;97071.47;4952818;28;20065;-67
2022/07/01 11:10:41;;;;;;;0.60;0.50;;;;;;;14.93;100.00;97080.59;4955120;28;20046;-68
2022/07/01 11:13:08;;;;;;;2.63;0.70;;;;;;;14.84;100.00;97088.41;4943550;28;20075;-65
2022/07/01 11:15:34;;;;;;;2.20;1.33;;;;;;;14.78;100.00;97107.25;4961579;28;20149;-67
2022/07/01 11:18:01;;;;;;;1.00;0.60;;;;;;;14.73;100.00;97113.16;4951375;28;20120;-65
2022/07/01 11:20:30;;;;;;;2.83;1.02;;;;;;;14.63;100.00;97119.38;4952957;28;20053;-66
2022/07/01 11:22:56;;;;;;;2.67;1.00;;;;;;;14.61;100.00;97119.00;4953767;28;20131;-67
2022/07/01 11:25:22;;;;;;;2.63;0.80;;;;;;;14.46;100.00;97118.06;4962639;28;20618;-65
2022/07/01 11:27:51;;;;;;;2.97;0.77;;;;;;;14.37;100.00;97125.84;4958381;28;20046;-67
2022/07/01 11:30:17;;;;;;;2.42;0.88;;;;;;;14.47;100.00;97112.16;4943835;28;20066;-66
2022/07/01 11:32:48;;;;;;;2.03;0.95;;;;;;;14.34;100.00;97102.59;4957152;28;20036;-64
2022/07/01 11:41:09;;;;;;;2.42;1.00;;;;;;;13.85;100.00;97063.25;4962314;28;20042;-70
2022/07/01 11:43:37;;;;;;;2.58;0.80;;;;;;;13.95;100.00;97048.78;4958464;28;20061;-66
2022/07/01 11:46:05;;;;;;;3.38;1.08;;;;;;;14.37;100.00;97048.69;4949523;28;20148;-70